sensor_id;sensor_type;location;lat;lon;timestamp;P1;durP1;ratioP1;P2;durP2;ratioP2
29954;SDS011;16812;51.168;6.840;2022-08-20T00:02:12;5.67;;;3.83;;
29954;SDS011;16812;51.168;6.840;2022-08-20T00:04:40;5.67;;;4.87;;
29954;SDS011;16812;51.168;6.840;2022-08-20T00:07:07;4.47;;;4.07;;
29954;SDS011;16812;51.168;6.840;2022-08-20T00:09:34;7.17;;;5.00;;
29954;SDS011;16812;51.168;6.840;2022-08-20T00:12:02;7.33;;;4.70;;
29954;SDS011;16812;51.168;6.840;2022-08-20T00:14:29;9.77;;;6.87;;
29954;SDS011;16812;51.168;6.840;2022-08-20T00:17:00;13.30;;;7.23;;
29954;SDS011;16812;51.168;6.840;2022-08-20T00:19:27;9.67;;;6.60;;
29954;SDS011;16812;51.168;6.840;2022-08-20T00:21:55;20.50;;;11.53;;
29954;SDS011;16812;51.168;6.840;2022-08-20T00:24:23;20.83;;;10.27;;
29954;SDS011;16812;51.168;6.840;2022-08-20T00:26:51;18.13;;;10.87;;
29954;SDS011;16812;51.168;6.840;2022-08-20T00:29:18;18.97;;;10.97;;
29954;SDS011;16812;51.168;6.840;2022-08-20T00:31:47;19.20;;;11.30;;
29954;SDS011;16812;51.168;6.840;2022-08-20T00:34:16;19.23;;;9.23;;
29954;SDS011;16812;51.168;6.840;2022-08-20T00:36:43;14.67;;;9.07;;
29954;SDS011;16812;51.168;6.840;2022-08-20T00:39:10;12.47;;;8.73;;
29954;SDS011;16812;51.168;6.840;2022-08-20T00:41:37;17.33;;;11.20;;
29954;SDS011;16812;51.168;6.840;2022-08-20T00:44:07;13.60;;;10.20;;
29954;SDS011;16812;51.168;6.840;2022-08-20T00:46:34;14.73;;;10.43;;
29954;SDS011;16812;51.168;6.840;2022-08-20T00:49:02;16.47;;;11.97;;
29954;SDS011;16812;51.168;6.840;2022-08-20T00:51:33;17.03;;;11.03;;
29954;SDS011;16812;51.168;6.840;2022-08-20T00:54:03;15.57;;;9.60;;
29954;SDS011;16812;51.168;6.840;2022-08-20T00:56:32;20.47;;;10.97;;
29954;SDS011;16812;51.168;6.840;2022-08-20T00:58:59;19.40;;;11.07;;
29954;SDS011;16812;51.168;6.840;2022-08-20T01:01:27;17.70;;;11.10;;
29954;SDS011;16812;51.168;6.840;2022-08-20T01:03:54;16.50;;;9.40;;
29954;SDS011;16812;51.168;6.840;2022-08-20T01:06:21;20.70;;;10.57;;
29954;SDS011;16812;51.168;6.840;2022-08-20T01:08:50;19.23;;;11.20;;
29954;SDS011;16812;51.168;6.840;2022-08-20T01:11:17;24.93;;;11.80;;
29954;SDS011;16812;51.168;6.840;2022-08-20T01:13:44;17.13;;;10.70;;
29954;SDS011;16812;51.168;6.840;2022-08-20T01:16:15;19.77;;;10.80;;
29954;SDS011;16812;51.168;6.840;2022-08-20T01:18:43;17.60;;;10.97;;
29954;SDS011;16812;51.168;6.840;2022-08-20T01:21:11;19.60;;;11.03;;
29954;SDS011;16812;51.168;6.840;2022-08-20T01:23:39;19.67;;;12.07;;
29954;SDS011;16812;51.168;6.840;2022-08-20T01:26:09;21.93;;;11.60;;
29954;SDS011;16812;51.168;6.840;2022-08-20T01:28:39;24.03;;;12.20;;
29954;SDS011;16812;51.168;6.840;2022-08-20T01:31:08;20.30;;;11.80;;
29954;SDS011;16812;51.168;6.840;2022-08-20T01:33:36;22.67;;;12.20;;
29954;SDS011;16812;51.168;6.840;2022-08-20T01:36:03;20.07;;;12.90;;
29954;SDS011;16812;51.168;6.840;2022-08-20T01:38:31;21.57;;;12.07;;
29954;SDS011;16812;51.168;6.840;2022-08-20T01:43:55;20.87;;;11.67;;
29954;SDS011;16812;51.168;6.840;2022-08-20T01:46:24;24.83;;;13.60;;
29954;SDS011;16812;51.168;6.840;2022-08-20T01:48:52;21.30;;;11.43;;
29954;SDS011;16812;51.168;6.840;2022-08-20T01:51:20;25.03;;;12.93;;
29954;SDS011;16812;51.168;6.840;2022-08-20T01:53:50;21.87;;;12.50;;
29954;SDS011;16812;51.168;6.840;2022-08-20T01:56:18;22.57;;;13.30;;
29954;SDS011;16812;51.168;6.840;2022-08-20T01:58:48;21.83;;;12.23;;
29954;SDS011;16812;51.168;6.840;2022-08-20T02:01:24;21.63;;;12.40;;
29954;SDS011;16812;51.168;6.840;2022-08-20T02:03:52;22.90;;;12.73;;
29954;SDS011;16812;51.168;6.840;2022-08-20T02:06:19;24.10;;;13.13;;
29954;SDS011;16812;51.168;6.840;2022-08-20T02:08:47;24.53;;;13.37;;
29954;SDS011;16812;51.168;6.840;2022-08-20T02:11:14;21.90;;;12.00;;
29954;SDS011;16812;51.168;6.840;2022-08-20T02:13:41;25.27;;;12.97;;
29954;SDS011;16812;51.168;6.840;2022-08-20T02:16:08;22.23;;;12.20;;
29954;SDS011;16812;51.168;6.840;2022-08-20T02:18:36;22.93;;;12.47;;
29954;SDS011;16812;51.168;6.840;2022-08-20T02:21:04;19.67;;;11.13;;
29954;SDS011;16812;51.168;6.840;2022-08-20T02:23:31;21.17;;;11.00;;
29954;SDS011;16812;51.168;6.840;2022-08-20T02:25:58;22.60;;;11.87;;
29954;SDS011;16812;51.168;6.840;2022-08-20T02:28:25;21.00;;;10.80;;
29954;SDS011;16812;51.168;6.840;2022-08-20T02:30:53;17.40;;;10.67;;
29954;SDS011;16812;51.168;6.840;2022-08-20T02:33:20;20.40;;;10.50;;
29954;SDS011;16812;51.168;6.840;2022-08-20T02:35:52;18.83;;;10.70;;
29954;SDS011;16812;51.168;6.840;2022-08-20T02:38:19;25.93;;;13.13;;
29954;SDS011;16812;51.168;6.840;2022-08-20T02:40:47;23.70;;;11.73;;
29954;SDS011;16812;51.168;6.840;2022-08-20T02:43:14;20.80;;;11.70;;
29954;SDS011;16812;51.168;6.840;2022-08-20T02:45:41;19.70;;;10.03;;
29954;SDS011;16812;51.168;6.840;2022-08-20T02:48:09;23.50;;;9.50;;
29954;SDS011;16812;51.168;6.840;2022-08-20T02:50:36;15.40;;;9.07;;
29954;SDS011;16812;51.168;6.840;2022-08-20T02:53:05;15.67;;;10.13;;
29954;SDS011;16812;51.168;6.840;2022-08-20T02:55:32;14.53;;;9.70;;
29954;SDS011;16812;51.168;6.840;2022-08-20T02:57:59;19.20;;;9.60;;
29954;SDS011;16812;51.168;6.840;2022-08-20T03:00:27;19.60;;;9.90;;
29954;SDS011;16812;51.168;6.840;2022-08-20T03:02:57;15.27;;;9.70;;
29954;SDS011;16812;51.168;6.840;2022-08-20T03:05:24;19.27;;;10.57;;
29954;SDS011;16812;51.168;6.840;2022-08-20T03:07:52;16.70;;;10.10;;
29954;SDS011;16812;51.168;6.840;2022-08-20T03:10:23;16.17;;;8.70;;
29954;SDS011;16812;51.168;6.840;2022-08-20T03:12:51;16.87;;;10.50;;
29954;SDS011;16812;51.168;6.840;2022-08-20T03:15:18;15.23;;;10.10;;
29954;SDS011;16812;51.168;6.840;2022-08-20T03:17:45;13.70;;;8.73;;
29954;SDS011;16812;51.168;6.840;2022-08-20T03:20:13;14.73;;;9.27;;
29954;SDS011;16812;51.168;6.840;2022-08-20T03:22:40;15.57;;;9.40;;
29954;SDS011;16812;51.168;6.840;2022-08-20T03:25:07;18.03;;;9.90;;
29954;SDS011;16812;51.168;6.840;2022-08-20T03:27:36;17.83;;;9.70;;
29954;SDS011;16812;51.168;6.840;2022-08-20T03:30:05;17.17;;;10.00;;
29954;SDS011;16812;51.168;6.840;2022-08-20T03:32:33;14.40;;;9.23;;
29954;SDS011;16812;51.168;6.840;2022-08-20T03:35:01;18.57;;;10.57;;
29954;SDS011;16812;51.168;6.840;2022-08-20T03:37:29;19.33;;;11.27;;
29954;SDS011;16812;51.168;6.840;2022-08-20T03:39:56;18.57;;;11.13;;
29954;SDS011;16812;51.168;6.840;2022-08-20T03:42:24;16.77;;;9.93;;
29954;SDS011;16812;51.168;6.840;2022-08-20T03:44:52;20.77;;;11.50;;
29954;SDS011;16812;51.168;6.840;2022-08-20T03:47:24;20.57;;;10.10;;
29954;SDS011;16812;51.168;6.840;2022-08-20T03:49:56;18.73;;;10.40;;
29954;SDS011;16812;51.168;6.840;2022-08-20T03:52:23;18.60;;;11.07;;
29954;SDS011;16812;51.168;6.840;2022-08-20T03:54:50;19.67;;;11.30;;
29954;SDS011;16812;51.168;6.840;2022-08-20T03:57:18;21.93;;;11.33;;
29954;SDS011;16812;51.168;6.840;2022-08-20T03:59:45;20.57;;;12.10;;
29954;SDS011;16812;51.168;6.840;2022-08-20T04:02:21;26.20;;;13.50;;
29954;SDS011;16812;51.168;6.840;2022-08-20T04:04:48;24.57;;;12.73;;
29954;SDS011;16812;51.168;6.840;2022-08-20T04:07:16;24.10;;;13.20;;
29954;SDS011;16812;51.168;6.840;2022-08-20T04:09:44;20.93;;;12.77;;
29954;SDS011;16812;51.168;6.840;2022-08-20T04:12:11;20.93;;;12.77;;
29954;SDS011;16812;51.168;6.840;2022-08-20T04:14:40;17.60;;;11.47;;
29954;SDS011;16812;51.168;6.840;2022-08-20T04:17:08;16.80;;;10.40;;
29954;SDS011;16812;51.168;6.840;2022-08-20T04:19:37;17.27;;;9.23;;
29954;SDS011;16812;51.168;6.840;2022-08-20T04:22:04;18.50;;;10.37;;
29954;SDS011;16812;51.168;6.840;2022-08-20T04:24:32;18.40;;;11.50;;
29954;SDS011;16812;51.168;6.840;2022-08-20T04:27:00;14.87;;;9.27;;
29954;SDS011;16812;51.168;6.840;2022-08-20T04:29:27;17.00;;;10.97;;
29954;SDS011;16812;51.168;6.840;2022-08-20T04:31:58;17.90;;;11.37;;
29954;SDS011;16812;51.168;6.840;2022-08-20T04:34:25;19.43;;;10.40;;
29954;SDS011;16812;51.168;6.840;2022-08-20T04:36:54;16.17;;;9.80;;
29954;SDS011;16812;51.168;6.840;2022-08-20T04:39:21;15.27;;;10.40;;
29954;SDS011;16812;51.168;6.840;2022-08-20T04:41:49;18.57;;;10.77;;
29954;SDS011;16812;51.168;6.840;2022-08-20T04:44:16;18.27;;;11.13;;
29954;SDS011;16812;51.168;6.840;2022-08-20T04:46:43;18.77;;;10.43;;
29954;SDS011;16812;51.168;6.840;2022-08-20T04:49:10;12.70;;;9.80;;
29954;SDS011;16812;51.168;6.840;2022-08-20T04:51:37;14.87;;;9.27;;
29954;SDS011;16812;51.168;6.840;2022-08-20T04:54:06;12.33;;;8.17;;
29954;SDS011;16812;51.168;6.840;2022-08-20T04:56:34;11.80;;;7.90;;
29954;SDS011;16812;51.168;6.840;2022-08-20T04:59:01;13.23;;;9.07;;
29954;SDS011;16812;51.168;6.840;2022-08-20T05:01:28;13.10;;;9.30;;
29954;SDS011;16812;51.168;6.840;2022-08-20T05:03:56;12.17;;;8.40;;
29954;SDS011;16812;51.168;6.840;2022-08-20T05:06:24;8.90;;;6.57;;
29954;SDS011;16812;51.168;6.840;2022-08-20T05:08:52;9.93;;;6.80;;
29954;SDS011;16812;51.168;6.840;2022-08-20T05:11:20;7.93;;;5.80;;
29954;SDS011;16812;51.168;6.840;2022-08-20T05:14:02;11.20;;;7.40;;
29954;SDS011;16812;51.168;6.840;2022-08-20T05:16:29;18.70;;;11.40;;
29954;SDS011;16812;51.168;6.840;2022-08-20T05:18:57;19.67;;;12.10;;
29954;SDS011;16812;51.168;6.840;2022-08-20T05:21:24;25.73;;;15.20;;
29954;SDS011;16812;51.168;6.840;2022-08-20T05:23:51;29.53;;;16.33;;
29954;SDS011;16812;51.168;6.840;2022-08-20T05:26:18;39.20;;;18.93;;
29954;SDS011;16812;51.168;6.840;2022-08-20T05:28:47;32.60;;;18.70;;
29954;SDS011;16812;51.168;6.840;2022-08-20T05:31:24;35.03;;;17.57;;
29954;SDS011;16812;51.168;6.840;2022-08-20T05:33:58;26.50;;;14.53;;
29954;SDS011;16812;51.168;6.840;2022-08-20T05:36:25;30.97;;;15.27;;
29954;SDS011;16812;51.168;6.840;2022-08-20T05:38:52;25.73;;;15.07;;
29954;SDS011;16812;51.168;6.840;2022-08-20T05:41:20;26.83;;;15.60;;
29954;SDS011;16812;51.168;6.840;2022-08-20T05:43:56;28.00;;;16.10;;
29954;SDS011;16812;51.168;6.840;2022-08-20T05:46:24;28.93;;;16.07;;
29954;SDS011;16812;51.168;6.840;2022-08-20T05:48:51;26.20;;;15.43;;
29954;SDS011;16812;51.168;6.840;2022-08-20T05:51:18;26.33;;;15.90;;
29954;SDS011;16812;51.168;6.840;2022-08-20T05:53:45;23.23;;;15.57;;
29954;SDS011;16812;51.168;6.840;2022-08-20T05:56:12;27.83;;;15.67;;
29954;SDS011;16812;51.168;6.840;2022-08-20T05:58:39;27.67;;;15.00;;
29954;SDS011;16812;51.168;6.840;2022-08-20T06:01:08;20.10;;;12.90;;
29954;SDS011;16812;51.168;6.840;2022-08-20T06:03:35;13.27;;;8.37;;
29954;SDS011;16812;51.168;6.840;2022-08-20T06:06:03;12.53;;;7.90;;
29954;SDS011;16812;51.168;6.840;2022-08-20T06:08:43;7.43;;;5.90;;
29954;SDS011;16812;51.168;6.840;2022-08-20T06:11:10;8.33;;;6.53;;
29954;SDS011;16812;51.168;6.840;2022-08-20T06:13:37;7.37;;;5.27;;
29954;SDS011;16812;51.168;6.840;2022-08-20T06:16:04;7.60;;;5.47;;
29954;SDS011;16812;51.168;6.840;2022-08-20T06:18:34;8.00;;;4.87;;
29954;SDS011;16812;51.168;6.840;2022-08-20T06:21:02;9.97;;;5.63;;
29954;SDS011;16812;51.168;6.840;2022-08-20T06:23:29;8.43;;;5.20;;
29954;SDS011;16812;51.168;6.840;2022-08-20T06:26:16;8.30;;;6.57;;
29954;SDS011;16812;51.168;6.840;2022-08-20T06:28:56;8.87;;;7.33;;
29954;SDS011;16812;51.168;6.840;2022-08-20T06:31:23;10.73;;;7.83;;
29954;SDS011;16812;51.168;6.840;2022-08-20T06:33:51;17.80;;;10.17;;
29954;SDS011;16812;51.168;6.840;2022-08-20T06:36:18;38.07;;;20.07;;
29954;SDS011;16812;51.168;6.840;2022-08-20T06:38:46;51.53;;;24.57;;
29954;SDS011;16812;51.168;6.840;2022-08-20T06:41:13;58.23;;;30.70;;
29954;SDS011;16812;51.168;6.840;2022-08-20T06:43:40;67.20;;;29.53;;
29954;SDS011;16812;51.168;6.840;2022-08-20T06:46:07;58.00;;;30.43;;
29954;SDS011;16812;51.168;6.840;2022-08-20T06:48:34;62.17;;;33.53;;
29954;SDS011;16812;51.168;6.840;2022-08-20T06:51:03;63.10;;;35.57;;
29954;SDS011;16812;51.168;6.840;2022-08-20T06:53:30;54.90;;;31.90;;
29954;SDS011;16812;51.168;6.840;2022-08-20T06:55:57;65.60;;;33.00;;
29954;SDS011;16812;51.168;6.840;2022-08-20T06:58:24;60.97;;;32.37;;
29954;SDS011;16812;51.168;6.840;2022-08-20T07:01:03;56.90;;;31.17;;
29954;SDS011;16812;51.168;6.840;2022-08-20T07:03:35;59.33;;;29.93;;
29954;SDS011;16812;51.168;6.840;2022-08-20T07:06:04;51.07;;;28.47;;
29954;SDS011;16812;51.168;6.840;2022-08-20T07:08:32;44.87;;;26.47;;
29954;SDS011;16812;51.168;6.840;2022-08-20T07:10:59;53.60;;;27.60;;
29954;SDS011;16812;51.168;6.840;2022-08-20T07:13:26;50.57;;;27.20;;
29954;SDS011;16812;51.168;6.840;2022-08-20T07:15:54;49.87;;;26.63;;
29954;SDS011;16812;51.168;6.840;2022-08-20T07:18:21;49.33;;;26.63;;
29954;SDS011;16812;51.168;6.840;2022-08-20T07:20:54;46.03;;;27.17;;
29954;SDS011;16812;51.168;6.840;2022-08-20T07:23:23;47.97;;;27.13;;
29954;SDS011;16812;51.168;6.840;2022-08-20T07:25:50;42.53;;;25.27;;
29954;SDS011;16812;51.168;6.840;2022-08-20T07:28:18;43.93;;;24.80;;
29954;SDS011;16812;51.168;6.840;2022-08-20T07:30:46;47.50;;;25.97;;
29954;SDS011;16812;51.168;6.840;2022-08-20T07:33:22;37.20;;;22.63;;
29954;SDS011;16812;51.168;6.840;2022-08-20T07:35:50;36.57;;;21.60;;
29954;SDS011;16812;51.168;6.840;2022-08-20T07:38:18;36.00;;;21.07;;
29954;SDS011;16812;51.168;6.840;2022-08-20T07:40:47;31.90;;;21.33;;
29954;SDS011;16812;51.168;6.840;2022-08-20T07:43:14;32.47;;;19.40;;
29954;SDS011;16812;51.168;6.840;2022-08-20T07:45:41;23.60;;;16.63;;
29954;SDS011;16812;51.168;6.840;2022-08-20T07:48:13;26.67;;;17.57;;
29954;SDS011;16812;51.168;6.840;2022-08-20T07:50:57;22.97;;;16.00;;
29954;SDS011;16812;51.168;6.840;2022-08-20T07:53:24;23.50;;;16.73;;
29954;SDS011;16812;51.168;6.840;2022-08-20T07:55:53;31.10;;;16.73;;
29954;SDS011;16812;51.168;6.840;2022-08-20T07:58:24;24.63;;;16.80;;
29954;SDS011;16812;51.168;6.840;2022-08-20T08:00:58;24.90;;;17.50;;
29954;SDS011;16812;51.168;6.840;2022-08-20T08:03:26;26.30;;;15.47;;
29954;SDS011;16812;51.168;6.840;2022-08-20T08:06:13;24.27;;;16.30;;
29954;SDS011;16812;51.168;6.840;2022-08-20T08:08:53;28.33;;;16.00;;
29954;SDS011;16812;51.168;6.840;2022-08-20T08:11:22;25.17;;;15.03;;
29954;SDS011;16812;51.168;6.840;2022-08-20T08:13:49;21.90;;;14.60;;
29954;SDS011;16812;51.168;6.840;2022-08-20T08:16:16;26.13;;;16.50;;
29954;SDS011;16812;51.168;6.840;2022-08-20T08:18:44;25.60;;;16.20;;
29954;SDS011;16812;51.168;6.840;2022-08-20T08:21:12;27.80;;;16.10;;
29954;SDS011;16812;51.168;6.840;2022-08-20T08:23:39;23.63;;;14.23;;
29954;SDS011;16812;51.168;6.840;2022-08-20T08:26:06;26.53;;;15.20;;
29954;SDS011;16812;51.168;6.840;2022-08-20T08:28:42;27.40;;;15.10;;
29954;SDS011;16812;51.168;6.840;2022-08-20T08:31:10;26.83;;;17.10;;
29954;SDS011;16812;51.168;6.840;2022-08-20T08:33:37;21.80;;;14.37;;
29954;SDS011;16812;51.168;6.840;2022-08-20T08:36:05;25.20;;;16.43;;
29954;SDS011;16812;51.168;6.840;2022-08-20T08:38:33;21.67;;;14.70;;
29954;SDS011;16812;51.168;6.840;2022-08-20T08:41:02;30.00;;;17.10;;
29954;SDS011;16812;51.168;6.840;2022-08-20T08:43:31;27.87;;;15.30;;
29954;SDS011;16812;51.168;6.840;2022-08-20T08:46:01;31.97;;;17.33;;
29954;SDS011;16812;51.168;6.840;2022-08-20T08:48:31;30.57;;;15.13;;
29954;SDS011;16812;51.168;6.840;2022-08-20T08:50:58;32.43;;;18.30;;
29954;SDS011;16812;51.168;6.840;2022-08-20T08:53:29;24.40;;;15.30;;
29954;SDS011;16812;51.168;6.840;2022-08-20T08:55:57;28.73;;;15.40;;
29954;SDS011;16812;51.168;6.840;2022-08-20T08:58:24;28.53;;;15.37;;
29954;SDS011;16812;51.168;6.840;2022-08-20T09:00:51;22.50;;;14.63;;
29954;SDS011;16812;51.168;6.840;2022-08-20T09:03:25;25.27;;;15.80;;
29954;SDS011;16812;51.168;6.840;2022-08-20T09:05:53;29.13;;;16.80;;
29954;SDS011;16812;51.168;6.840;2022-08-20T09:08:22;29.30;;;17.17;;
29954;SDS011;16812;51.168;6.840;2022-08-20T09:10:50;26.80;;;17.50;;
29954;SDS011;16812;51.168;6.840;2022-08-20T09:13:17;28.47;;;16.23;;
29954;SDS011;16812;51.168;6.840;2022-08-20T09:15:44;26.60;;;15.90;;
29954;SDS011;16812;51.168;6.840;2022-08-20T09:18:11;27.57;;;16.07;;
29954;SDS011;16812;51.168;6.840;2022-08-20T09:20:40;27.23;;;15.37;;
29954;SDS011;16812;51.168;6.840;2022-08-20T09:23:07;24.47;;;15.07;;
29954;SDS011;16812;51.168;6.840;2022-08-20T09:25:34;30.10;;;15.90;;
29954;SDS011;16812;51.168;6.840;2022-08-20T09:28:01;27.27;;;16.10;;
29954;SDS011;16812;51.168;6.840;2022-08-20T09:30:30;25.20;;;15.97;;
29954;SDS011;16812;51.168;6.840;2022-08-20T09:32:57;27.70;;;16.73;;
29954;SDS011;16812;51.168;6.840;2022-08-20T09:35:25;35.10;;;17.40;;
29954;SDS011;16812;51.168;6.840;2022-08-20T09:37:53;32.10;;;17.13;;
29954;SDS011;16812;51.168;6.840;2022-08-20T09:40:21;32.33;;;19.07;;
29954;SDS011;16812;51.168;6.840;2022-08-20T09:42:48;29.87;;;17.63;;
29954;SDS011;16812;51.168;6.840;2022-08-20T09:45:16;29.10;;;18.27;;
29954;SDS011;16812;51.168;6.840;2022-08-20T09:47:44;27.07;;;16.30;;
29954;SDS011;16812;51.168;6.840;2022-08-20T09:50:22;26.70;;;17.33;;
29954;SDS011;16812;51.168;6.840;2022-08-20T09:52:49;32.67;;;15.43;;
29954;SDS011;16812;51.168;6.840;2022-08-20T09:55:21;27.63;;;17.00;;
29954;SDS011;16812;51.168;6.840;2022-08-20T09:57:50;26.90;;;15.60;;
29954;SDS011;16812;51.168;6.840;2022-08-20T10:00:17;38.53;;;18.70;;
29954;SDS011;16812;51.168;6.840;2022-08-20T10:02:45;22.03;;;15.73;;
29954;SDS011;16812;51.168;6.840;2022-08-20T10:05:12;25.07;;;16.07;;
29954;SDS011;16812;51.168;6.840;2022-08-20T10:07:40;33.83;;;17.73;;
29954;SDS011;16812;51.168;6.840;2022-08-20T10:10:08;29.00;;;15.83;;
29954;SDS011;16812;51.168;6.840;2022-08-20T10:12:37;28.33;;;15.20;;
29954;SDS011;16812;51.168;6.840;2022-08-20T10:15:05;26.80;;;16.17;;
29954;SDS011;16812;51.168;6.840;2022-08-20T10:17:32;27.17;;;16.60;;
29954;SDS011;16812;51.168;6.840;2022-08-20T10:20:02;25.03;;;15.13;;
29954;SDS011;16812;51.168;6.840;2022-08-20T10:22:30;26.47;;;16.43;;
29954;SDS011;16812;51.168;6.840;2022-08-20T10:24:57;24.40;;;16.63;;
29954;SDS011;16812;51.168;6.840;2022-08-20T10:27:24;25.60;;;14.83;;
29954;SDS011;16812;51.168;6.840;2022-08-20T10:29:52;27.20;;;16.10;;
29954;SDS011;16812;51.168;6.840;2022-08-20T10:32:19;28.80;;;17.00;;
29954;SDS011;16812;51.168;6.840;2022-08-20T10:34:47;23.17;;;15.60;;
29954;SDS011;16812;51.168;6.840;2022-08-20T10:37:14;28.53;;;14.70;;
29954;SDS011;16812;51.168;6.840;2022-08-20T10:39:41;26.30;;;15.43;;
29954;SDS011;16812;51.168;6.840;2022-08-20T10:42:09;31.00;;;15.87;;
29954;SDS011;16812;51.168;6.840;2022-08-20T10:44:36;24.67;;;15.03;;
29954;SDS011;16812;51.168;6.840;2022-08-20T10:47:15;25.93;;;14.70;;
29954;SDS011;16812;51.168;6.840;2022-08-20T10:49:42;25.67;;;14.70;;
29954;SDS011;16812;51.168;6.840;2022-08-20T10:52:10;22.83;;;15.00;;
29954;SDS011;16812;51.168;6.840;2022-08-20T10:54:37;23.27;;;13.93;;
29954;SDS011;16812;51.168;6.840;2022-08-20T10:57:04;24.73;;;13.97;;
29954;SDS011;16812;51.168;6.840;2022-08-20T10:59:33;20.23;;;13.70;;
29954;SDS011;16812;51.168;6.840;2022-08-20T11:02:03;22.03;;;14.20;;
29954;SDS011;16812;51.168;6.840;2022-08-20T11:04:31;23.27;;;15.77;;
29954;SDS011;16812;51.168;6.840;2022-08-20T11:07:08;22.47;;;12.97;;
29954;SDS011;16812;51.168;6.840;2022-08-20T11:09:36;21.33;;;13.20;;
29954;SDS011;16812;51.168;6.840;2022-08-20T11:12:03;20.50;;;14.33;;
29954;SDS011;16812;51.168;6.840;2022-08-20T11:14:30;24.87;;;13.27;;
29954;SDS011;16812;51.168;6.840;2022-08-20T11:16:57;23.73;;;12.20;;
29954;SDS011;16812;51.168;6.840;2022-08-20T11:19:24;26.43;;;12.20;;
29954;SDS011;16812;51.168;6.840;2022-08-20T11:21:53;21.43;;;14.90;;
29954;SDS011;16812;51.168;6.840;2022-08-20T11:24:20;20.90;;;14.00;;
29954;SDS011;16812;51.168;6.840;2022-08-20T11:26:47;23.63;;;13.83;;
29954;SDS011;16812;51.168;6.840;2022-08-20T11:29:15;19.10;;;13.30;;
29954;SDS011;16812;51.168;6.840;2022-08-20T11:31:42;21.23;;;13.47;;
29954;SDS011;16812;51.168;6.840;2022-08-20T11:34:09;21.63;;;13.43;;
29954;SDS011;16812;51.168;6.840;2022-08-20T11:36:38;25.20;;;14.63;;
29954;SDS011;16812;51.168;6.840;2022-08-20T11:39:06;18.27;;;12.77;;
29954;SDS011;16812;51.168;6.840;2022-08-20T11:41:34;21.30;;;13.50;;
29954;SDS011;16812;51.168;6.840;2022-08-20T11:44:01;22.20;;;13.23;;
29954;SDS011;16812;51.168;6.840;2022-08-20T11:46:46;21.70;;;12.97;;
29954;SDS011;16812;51.168;6.840;2022-08-20T11:49:13;19.13;;;12.67;;
29954;SDS011;16812;51.168;6.840;2022-08-20T11:51:40;21.07;;;13.60;;
29954;SDS011;16812;51.168;6.840;2022-08-20T11:54:16;19.40;;;11.93;;
29954;SDS011;16812;51.168;6.840;2022-08-20T11:56:44;21.70;;;13.03;;
29954;SDS011;16812;51.168;6.840;2022-08-20T11:59:12;19.13;;;12.73;;
29954;SDS011;16812;51.168;6.840;2022-08-20T12:01:39;19.60;;;13.30;;
29954;SDS011;16812;51.168;6.840;2022-08-20T12:04:26;20.07;;;12.90;;
29954;SDS011;16812;51.168;6.840;2022-08-20T12:06:53;19.37;;;12.43;;
29954;SDS011;16812;51.168;6.840;2022-08-20T12:09:23;19.37;;;11.30;;
29954;SDS011;16812;51.168;6.840;2022-08-20T12:11:51;16.73;;;12.40;;
29954;SDS011;16812;51.168;6.840;2022-08-20T12:14:18;16.90;;;11.77;;
29954;SDS011;16812;51.168;6.840;2022-08-20T12:16:45;18.30;;;11.77;;
29954;SDS011;16812;51.168;6.840;2022-08-20T12:19:12;16.77;;;12.60;;
29954;SDS011;16812;51.168;6.840;2022-08-20T12:21:39;15.60;;;10.23;;
29954;SDS011;16812;51.168;6.840;2022-08-20T12:24:07;17.20;;;12.00;;
29954;SDS011;16812;51.168;6.840;2022-08-20T12:26:35;15.00;;;10.80;;
29954;SDS011;16812;51.168;6.840;2022-08-20T12:29:02;15.10;;;10.40;;
29954;SDS011;16812;51.168;6.840;2022-08-20T12:31:29;15.67;;;10.10;;
29954;SDS011;16812;51.168;6.840;2022-08-20T12:33:57;13.60;;;9.00;;
29954;SDS011;16812;51.168;6.840;2022-08-20T12:36:24;13.63;;;10.43;;
29954;SDS011;16812;51.168;6.840;2022-08-20T12:38:51;12.17;;;10.10;;
29954;SDS011;16812;51.168;6.840;2022-08-20T12:41:18;13.20;;;9.60;;
29954;SDS011;16812;51.168;6.840;2022-08-20T12:43:47;15.17;;;11.20;;
29954;SDS011;16812;51.168;6.840;2022-08-20T12:46:14;11.47;;;9.43;;
29954;SDS011;16812;51.168;6.840;2022-08-20T12:48:41;19.33;;;10.10;;
29954;SDS011;16812;51.168;6.840;2022-08-20T12:51:08;13.77;;;9.67;;
29954;SDS011;16812;51.168;6.840;2022-08-20T12:53:35;14.60;;;10.03;;
29954;SDS011;16812;51.168;6.840;2022-08-20T12:56:03;14.27;;;9.07;;
29954;SDS011;16812;51.168;6.840;2022-08-20T12:58:30;18.80;;;9.87;;
29954;SDS011;16812;51.168;6.840;2022-08-20T13:00:58;14.27;;;9.50;;
29954;SDS011;16812;51.168;6.840;2022-08-20T13:03:25;12.67;;;8.37;;
29954;SDS011;16812;51.168;6.840;2022-08-20T13:05:59;12.20;;;8.70;;
29954;SDS011;16812;51.168;6.840;2022-08-20T13:08:26;12.27;;;8.40;;
29954;SDS011;16812;51.168;6.840;2022-08-20T13:10:53;12.50;;;8.10;;
29954;SDS011;16812;51.168;6.840;2022-08-20T13:13:21;13.17;;;9.10;;
29954;SDS011;16812;51.168;6.840;2022-08-20T13:15:48;13.53;;;9.50;;
29954;SDS011;16812;51.168;6.840;2022-08-20T13:18:17;18.27;;;9.77;;
29954;SDS011;16812;51.168;6.840;2022-08-20T13:20:44;18.53;;;8.70;;
29954;SDS011;16812;51.168;6.840;2022-08-20T13:23:11;17.17;;;10.07;;
29954;SDS011;16812;51.168;6.840;2022-08-20T13:25:39;12.47;;;7.80;;
29954;SDS011;16812;51.168;6.840;2022-08-20T13:28:06;15.23;;;7.47;;
29954;SDS011;16812;51.168;6.840;2022-08-20T13:30:33;14.50;;;7.50;;
29954;SDS011;16812;51.168;6.840;2022-08-20T13:33:01;13.20;;;6.53;;
29954;SDS011;16812;51.168;6.840;2022-08-20T13:35:29;8.40;;;6.33;;
29954;SDS011;16812;51.168;6.840;2022-08-20T13:37:56;9.43;;;5.97;;
29954;SDS011;16812;51.168;6.840;2022-08-20T13:40:24;15.17;;;6.87;;
29954;SDS011;16812;51.168;6.840;2022-08-20T13:42:51;12.27;;;7.10;;
29954;SDS011;16812;51.168;6.840;2022-08-20T13:45:18;16.23;;;8.57;;
29954;SDS011;16812;51.168;6.840;2022-08-20T13:47:45;14.90;;;8.00;;
29954;SDS011;16812;51.168;6.840;2022-08-20T13:50:17;14.93;;;6.47;;
29954;SDS011;16812;51.168;6.840;2022-08-20T13:52:46;11.43;;;6.53;;
29954;SDS011;16812;51.168;6.840;2022-08-20T13:55:15;11.23;;;5.50;;
29954;SDS011;16812;51.168;6.840;2022-08-20T13:57:44;12.10;;;5.40;;
29954;SDS011;16812;51.168;6.840;2022-08-20T14:00:13;9.63;;;6.23;;
29954;SDS011;16812;51.168;6.840;2022-08-20T14:02:41;8.90;;;5.00;;
29954;SDS011;16812;51.168;6.840;2022-08-20T14:05:08;9.03;;;5.13;;
29954;SDS011;16812;51.168;6.840;2022-08-20T14:07:37;13.77;;;4.90;;
29954;SDS011;16812;51.168;6.840;2022-08-20T14:10:07;11.27;;;5.07;;
29954;SDS011;16812;51.168;6.840;2022-08-20T14:12:35;7.57;;;4.30;;
29954;SDS011;16812;51.168;6.840;2022-08-20T14:15:03;11.43;;;4.20;;
29954;SDS011;16812;51.168;6.840;2022-08-20T14:17:31;8.67;;;5.10;;
29954;SDS011;16812;51.168;6.840;2022-08-20T14:19:59;11.80;;;4.70;;
29954;SDS011;16812;51.168;6.840;2022-08-20T14:22:27;10.70;;;5.20;;
29954;SDS011;16812;51.168;6.840;2022-08-20T14:24:54;14.07;;;4.77;;
29954;SDS011;16812;51.168;6.840;2022-08-20T14:27:23;8.37;;;4.60;;
29954;SDS011;16812;51.168;6.840;2022-08-20T14:29:56;10.73;;;4.40;;
29954;SDS011;16812;51.168;6.840;2022-08-20T14:32:24;7.47;;;4.80;;
29954;SDS011;16812;51.168;6.840;2022-08-20T14:34:51;13.60;;;5.37;;
29954;SDS011;16812;51.168;6.840;2022-08-20T14:37:19;10.40;;;5.00;;